createdAt,value
2023-01-29T00:00:31.142Z,0
2023-01-29T00:05:31.455Z,0
2023-01-29T00:10:30.988Z,0
2023-01-29T00:15:31.062Z,0
2023-01-29T00:20:31.286Z,0
2023-01-29T00:25:31.455Z,0
2023-01-29T00:30:31.588Z,0
2023-01-29T00:35:31.741Z,0
2023-01-29T00:40:31.083Z,0
2023-01-29T00:45:31.187Z,0
2023-01-29T00:50:31.799Z,0
2023-01-29T00:55:31.835Z,0
2023-01-29T01:00:32.350Z,0
2023-01-29T01:05:31.782Z,0
2023-01-29T01:10:31.162Z,0
2023-01-29T01:15:31.294Z,0
2023-01-29T01:20:31.526Z,0
2023-01-29T01:25:31.796Z,0
2023-01-29T01:30:31.977Z,0
2023-01-29T01:35:31.025Z,0
2023-01-29T01:40:31.033Z,0
2023-01-29T01:45:31.107Z,0
2023-01-29T01:50:31.172Z,0
2023-01-29T01:55:31.522Z,0
2023-01-29T02:00:31.725Z,0
2023-01-29T02:05:31.900Z,0
2023-01-29T02:10:31.248Z,0
2023-01-29T02:15:31.938Z,0
2023-01-29T02:20:31.223Z,0
2023-01-29T02:25:31.373Z,0
2023-01-29T02:30:31.888Z,0
2023-01-29T02:35:31.036Z,0
2023-01-29T02:40:31.213Z,0
2023-01-29T02:45:31.326Z,0
2023-01-29T02:50:31.372Z,0
2023-01-29T02:55:31.036Z,0
2023-01-29T03:00:31.844Z,0
2023-01-29T03:05:31.866Z,0
2023-01-29T03:10:31.131Z,0
2023-01-29T03:15:31.531Z,0
2023-01-29T03:20:31.633Z,0
2023-01-29T03:25:31.545Z,0
2023-01-29T03:30:46.485Z,0
2023-01-29T03:35:31.952Z,0
2023-01-29T03:40:31.370Z,0
2023-01-29T03:45:31.244Z,0
2023-01-29T03:50:31.818Z,0
2023-01-29T03:55:31.542Z,0
2023-01-29T04:00:31.783Z,0
2023-01-29T04:05:31.883Z,0
2023-01-29T04:10:31.241Z,0
2023-01-29T04:15:31.391Z,0
2023-01-29T04:20:31.468Z,0
2023-01-29T04:25:31.721Z,0
2023-01-29T04:30:31.841Z,0
2023-01-29T04:35:30.999Z,0
2023-01-29T04:40:31.267Z,0
2023-01-29T04:45:31.580Z,0
2023-01-29T04:50:31.892Z,0
2023-01-29T04:55:31.990Z,0
2023-01-29T05:00:31.975Z,0
2023-01-29T05:05:31.057Z,0
2023-01-29T05:10:32.234Z,0
2023-01-29T05:15:31.367Z,0
2023-01-29T05:20:31.624Z,0
2023-01-29T05:25:31.868Z,0
2023-01-29T05:30:32.013Z,0
2023-01-29T05:35:31.464Z,0
2023-01-29T05:40:31.260Z,0
2023-01-29T05:45:31.272Z,0
2023-01-29T05:50:31.485Z,0
2023-01-29T05:55:32.215Z,0
2023-01-29T06:00:31.726Z,0
2023-01-29T06:05:31.978Z,0
2023-01-29T06:10:31.129Z,0
2023-01-29T06:15:31.295Z,0
2023-01-29T06:20:31.251Z,0
2023-01-29T06:25:31.441Z,0
2023-01-29T06:30:31.603Z,0
2023-01-29T06:35:31.737Z,0
2023-01-29T06:40:31.830Z,0
2023-01-29T06:45:31.961Z,0
2023-01-29T06:50:32.013Z,0
2023-01-29T06:55:31.950Z,0
2023-01-29T07:00:31.802Z,0
2023-01-29T07:05:32.060Z,0
2023-01-29T07:10:32.200Z,0
2023-01-29T07:15:31.330Z,0
2023-01-29T07:20:31.491Z,0
2023-01-29T07:25:31.611Z,0
2023-01-29T07:30:31.746Z,0
2023-01-29T07:35:31.204Z,8
2023-01-29T07:40:31.465Z,8
2023-01-29T07:45:31.807Z,15
2023-01-29T07:50:31.872Z,15
2023-01-29T07:55:31.981Z,21.4
2023-01-29T08:00:32.007Z,21.4
2023-01-29T08:05:31.115Z,22
2023-01-29T08:10:31.200Z,22
2023-01-29T08:15:31.246Z,25
2023-01-29T08:20:31.343Z,25
2023-01-29T08:25:31.654Z,30.8
2023-01-29T08:30:31.915Z,30.8
2023-01-29T08:35:31.968Z,26.6
2023-01-29T08:40:32.285Z,26.6
2023-01-29T08:45:31.317Z,30
2023-01-29T08:50:31.516Z,30
2023-01-29T08:55:31.327Z,31.8
2023-01-29T09:00:31.415Z,31.8
2023-01-29T09:05:31.581Z,25.2
2023-01-29T09:10:31.585Z,25.2
2023-01-29T09:15:31.673Z,23
2023-01-29T09:20:31.933Z,23
2023-01-29T09:25:31.936Z,30.5
2023-01-29T09:30:32.096Z,30.5
2023-01-29T09:35:31.321Z,34.8
2023-01-29T09:40:31.554Z,34.8
2023-01-29T09:45:31.941Z,41
2023-01-29T09:50:32.181Z,41
2023-01-29T09:55:31.240Z,48.8
2023-01-29T10:00:31.588Z,48.8
2023-01-29T10:05:31.948Z,48.2
2023-01-29T10:10:32.107Z,48.2
2023-01-29T10:15:32.107Z,40.2
2023-01-29T10:20:32.231Z,40.2
2023-01-29T10:25:31.488Z,33.2
2023-01-29T10:30:32.133Z,33.2
2023-01-29T10:35:31.783Z,38.5
2023-01-29T10:40:31.918Z,38.5
2023-01-29T10:45:32.149Z,41.2
2023-01-29T10:50:32.227Z,41.2
2023-01-29T10:55:31.305Z,31.6
2023-01-29T11:00:31.350Z,31.6
2023-01-29T11:05:31.346Z,30
2023-01-29T11:10:31.548Z,30
2023-01-29T11:15:31.998Z,37.8
2023-01-29T11:20:31.767Z,37.8
2023-01-29T11:25:32.103Z,34.8
2023-01-29T11:30:32.309Z,34.8
2023-01-29T11:35:31.342Z,31.2
2023-01-29T11:40:31.739Z,31.2
2023-01-29T11:45:31.731Z,40.5
2023-01-29T11:50:32.095Z,40.5
2023-01-29T11:55:51.003Z,46.2
2023-01-29T12:00:32.199Z,46.2
2023-01-29T12:05:31.498Z,48
2023-01-29T12:10:31.733Z,48
2023-01-29T12:15:31.756Z,51.8
2023-01-29T12:20:31.815Z,51.8
2023-01-29T12:25:31.831Z,46.4
2023-01-29T12:30:32.039Z,46.4
2023-01-29T12:35:31.772Z,50.2
2023-01-29T12:40:31.775Z,50.2
2023-01-29T12:45:31.817Z,47.2
2023-01-29T12:50:31.830Z,47.2
2023-01-29T12:55:31.911Z,54
2023-01-29T13:00:31.916Z,54
2023-01-29T13:05:31.851Z,35.6
2023-01-29T13:10:31.679Z,35.6
2023-01-29T13:15:31.780Z,23
2023-01-29T13:20:31.878Z,23
2023-01-29T13:25:31.956Z,23
2023-01-29T13:30:32.401Z,23
2023-01-29T13:35:31.647Z,31.2
2023-01-29T13:40:31.666Z,31.2
2023-01-29T13:45:31.700Z,30.8
2023-01-29T13:50:31.741Z,30.8
2023-01-29T13:55:31.846Z,34.2
2023-01-29T14:00:31.884Z,34.2
2023-01-29T14:05:32.057Z,33.2
2023-01-29T14:10:32.142Z,33.2
2023-01-29T14:15:31.953Z,22.8
2023-01-29T14:20:46.262Z,22.8
2023-01-29T14:25:31.425Z,19.8
2023-01-29T14:30:31.840Z,19.8
2023-01-29T14:35:31.909Z,17
2023-01-29T14:40:32.055Z,17
2023-01-29T14:45:32.178Z,23.6
2023-01-29T14:50:32.372Z,23.6
2023-01-29T14:55:31.565Z,9
2023-01-29T15:00:31.932Z,9
2023-01-29T15:05:31.588Z,10
2023-01-29T15:10:31.459Z,10
2023-01-29T15:15:31.812Z,7
2023-01-29T15:20:31.995Z,7
2023-01-29T15:25:32.363Z,2.5
2023-01-29T15:30:31.618Z,2.5
2023-01-29T15:35:31.846Z,0
2023-01-29T15:40:31.650Z,0
2023-01-29T15:45:31.979Z,0
2023-01-29T15:50:32.336Z,0
2023-01-29T15:55:31.451Z,0
2023-01-29T16:00:31.465Z,0
2023-01-29T16:05:32.376Z,0
2023-01-29T16:10:31.651Z,0
2023-01-29T16:15:32.496Z,0
2023-01-29T16:20:31.868Z,0
2023-01-29T16:25:32.055Z,0
2023-01-29T16:30:32.255Z,0
2023-01-29T16:35:31.830Z,0
2023-01-29T16:40:32.054Z,0
2023-01-29T16:45:32.105Z,0
2023-01-29T16:50:35.973Z,0
2023-01-29T16:55:32.335Z,0
2023-01-29T17:00:32.539Z,0
2023-01-29T17:05:31.702Z,0
2023-01-29T17:10:31.874Z,0
2023-01-29T17:15:32.077Z,0
2023-01-29T17:20:32.212Z,0
2023-01-29T17:25:32.331Z,0
2023-01-29T17:30:32.629Z,0
2023-01-29T17:35:31.706Z,0
2023-01-29T17:40:31.808Z,0
2023-01-29T17:45:31.965Z,0
2023-01-29T17:50:32.265Z,0
2023-01-29T17:55:32.223Z,0
2023-01-29T18:00:32.269Z,0
2023-01-29T18:05:32.346Z,0
2023-01-29T18:10:32.531Z,0
2023-01-29T18:15:31.500Z,0
2023-01-29T18:20:31.833Z,0
2023-01-29T18:25:31.875Z,0
2023-01-29T18:30:31.935Z,0
2023-01-29T18:35:32.173Z,0
2023-01-29T18:40:32.305Z,0
2023-01-29T18:45:32.602Z,0
2023-01-29T18:50:32.023Z,0
2023-01-29T18:55:34.114Z,0
2023-01-29T19:00:32.235Z,0
2023-01-29T19:05:32.224Z,0
2023-01-29T19:10:32.384Z,0
2023-01-29T19:15:31.777Z,0
2023-01-29T19:20:31.772Z,0
2023-01-29T19:25:31.835Z,0
2023-01-29T19:30:32.044Z,0
2023-01-29T19:35:32.044Z,0
2023-01-29T19:40:32.308Z,0
2023-01-29T19:45:50.736Z,0
2023-01-29T19:50:31.835Z,0
2023-01-29T19:55:31.858Z,0
2023-01-29T20:00:32.099Z,0
2023-01-29T20:05:32.196Z,0
2023-01-29T20:10:32.329Z,0
2023-01-29T20:15:32.463Z,0
2023-01-29T20:20:33.047Z,0
2023-01-29T20:25:32.271Z,0
2023-01-29T20:30:31.728Z,0
2023-01-29T20:35:31.834Z,0
2023-01-29T20:40:32.019Z,0
2023-01-29T20:45:32.407Z,0
2023-01-29T20:50:32.656Z,0
2023-01-29T20:55:32.070Z,0
2023-01-29T21:00:32.713Z,0
2023-01-29T21:05:31.706Z,0
2023-01-29T21:10:32.332Z,0
2023-01-29T21:15:32.474Z,0
2023-01-29T21:20:32.269Z,0
2023-01-29T21:25:32.222Z,0
2023-01-29T21:30:32.456Z,0
2023-01-29T21:35:31.933Z,0
2023-01-29T21:40:32.039Z,0
2023-01-29T21:45:35.810Z,0
2023-01-29T21:50:31.941Z,0
2023-01-29T21:55:31.647Z,0
2023-01-29T22:00:32.299Z,0
2023-01-29T22:05:31.669Z,0
2023-01-29T22:10:31.918Z,0
2023-01-29T22:15:32.133Z,0
2023-01-29T22:20:32.268Z,0
2023-01-29T22:25:32.394Z,0
2023-01-29T22:30:32.595Z,0
2023-01-29T22:35:31.753Z,0
2023-01-29T22:40:32.148Z,0
2023-01-29T22:45:32.146Z,0
2023-01-29T22:50:32.182Z,0
2023-01-29T22:55:32.370Z,0
2023-01-29T23:00:32.600Z,0
2023-01-29T23:05:32.246Z,0
2023-01-29T23:10:32.375Z,0
2023-01-29T23:15:31.790Z,0
2023-01-29T23:20:32.153Z,0
2023-01-29T23:25:32.218Z,0
2023-01-29T23:30:32.520Z,0
2023-01-29T23:35:31.918Z,0
2023-01-29T23:40:32.347Z,0
2023-01-29T23:45:32.275Z,0
2023-01-29T23:50:31.835Z,0
2023-01-29T23:55:31.959Z,0
